createdAt,value
2018-09-11T00:01:04.875Z,97494.55
2018-09-11T00:02:40.125Z,97487.73
2018-09-11T00:04:15.839Z,97486.37
2018-09-11T00:05:51.254Z,97496.58
2018-09-11T00:07:27.052Z,97493.14
2018-09-11T00:09:02.289Z,97498.80
2018-09-11T00:10:37.231Z,97509.02
2018-09-11T00:12:14.085Z,97509.92
2018-09-11T00:13:50.081Z,97510.38
2018-09-11T00:15:25.682Z,97506.88
2018-09-11T00:17:00.808Z,97505.64
2018-09-11T00:18:36.264Z,97505.59
2018-09-11T00:20:12.158Z,97509.59
2018-09-11T00:21:47.313Z,97510.31
2018-09-11T00:23:23.079Z,97507.45
2018-09-11T00:24:59.808Z,97508.50
2018-09-11T00:26:34.720Z,97510.47
2018-09-11T00:28:09.640Z,97510.72
2018-09-11T00:29:46.350Z,97513.31
2018-09-11T00:31:25.740Z,97508.61
2018-09-11T00:33:01.939Z,97505.84
2018-09-11T00:34:37.599Z,97509.63
2018-09-11T00:36:15.080Z,97505.84
2018-09-11T00:37:50.660Z,97510.95
2018-09-11T00:39:26.367Z,97507.55
2018-09-11T00:41:03.389Z,97511.99
2018-09-11T00:42:38.503Z,97514.38
2018-09-11T00:44:13.862Z,97510.97
2018-09-11T00:45:52.435Z,97509.77
2018-09-11T00:47:27.274Z,97518.94
2018-09-11T00:49:03.400Z,97517.80
2018-09-11T00:50:38.200Z,97521.09
2018-09-11T00:52:13.575Z,97524.05
2018-09-11T00:53:49.321Z,97521.00
2018-09-11T00:55:25.892Z,97520.09
2018-09-11T00:57:01.163Z,97511.09
2018-09-11T00:58:40.057Z,97511.56
2018-09-11T01:00:18.185Z,97513.48
2018-09-11T01:01:59.322Z,97514.25
2018-09-11T01:03:38.331Z,97509.80
2018-09-11T01:05:24.716Z,97511.81
2018-09-11T01:07:08.691Z,97517.08
2018-09-11T01:08:50.605Z,97508.48
2018-09-11T01:10:32.386Z,97512.16
2018-09-11T01:12:11.046Z,97514.13
2018-09-11T01:13:48.749Z,97517.34
2018-09-11T01:15:27.484Z,97513.95
2018-09-11T01:17:06.985Z,97509.68
2018-09-11T01:18:46.467Z,97504.56
2018-09-11T01:20:23.919Z,97501.95
2018-09-11T01:22:06.306Z,97495.56
2018-09-11T01:23:42.771Z,97499.52
2018-09-11T01:25:20.290Z,97499.14
2018-09-11T01:26:57.057Z,97501.37
2018-09-11T01:28:31.983Z,97506.81
2018-09-11T01:30:08.909Z,97503.67
2018-09-11T01:31:45.530Z,97502.03
2018-09-11T01:33:21.205Z,97504.28
2018-09-11T01:34:57.387Z,97504.61
2018-09-11T01:36:32.607Z,97499.56
2018-09-11T01:38:09.558Z,97499.73
2018-09-11T01:39:45.129Z,97496.05
2018-09-11T01:41:20.684Z,97487.61
2018-09-11T01:42:56.089Z,97490.79
2018-09-11T01:44:31.926Z,97493.96
2018-09-11T01:46:08.042Z,97496.62
2018-09-11T01:47:43.670Z,97491.53
2018-09-11T01:49:19.944Z,97495.19
2018-09-11T01:50:56.004Z,97491.41
2018-09-11T01:52:31.510Z,97482.71
2018-09-11T01:54:06.833Z,97483.84
2018-09-11T01:55:41.894Z,97488.64
2018-09-11T01:57:17.993Z,97492.75
2018-09-11T01:58:56.599Z,97488.64
2018-09-11T02:00:31.948Z,97484.88
2018-09-11T02:02:07.427Z,97483.12
2018-09-11T02:03:42.699Z,97482.78
2018-09-11T02:05:18.664Z,97478.84
2018-09-11T02:06:53.652Z,97483.77
2018-09-11T02:08:29.161Z,97474.30
2018-09-11T02:10:04.591Z,97471.77
2018-09-11T02:11:40.877Z,97472.98
2018-09-11T02:13:16.897Z,97473.62
2018-09-11T02:14:53.835Z,97473.05
2018-09-11T02:16:29.053Z,97464.30
2018-09-11T02:18:07.697Z,97466.38
2018-09-11T02:19:42.801Z,97460.22
2018-09-11T02:21:18.847Z,97469.11
2018-09-11T02:22:53.867Z,97458.83
2018-09-11T02:24:29.047Z,97464.23
2018-09-11T02:26:06.171Z,97458.75
2018-09-11T02:27:41.286Z,97460.23
2018-09-11T02:29:16.372Z,97462.47
2018-09-11T02:30:54.201Z,97469.16
2018-09-11T02:32:29.891Z,97472.72
2018-09-11T02:34:05.929Z,97469.71
2018-09-11T02:35:41.208Z,97469.55
2018-09-11T02:37:16.464Z,97471.25
2018-09-11T02:38:51.706Z,97467.05
2018-09-11T02:40:26.773Z,97465.21
2018-09-11T02:42:02.373Z,97466.41
2018-09-11T02:43:38.590Z,97469.78
2018-09-11T02:45:14.990Z,97473.56
2018-09-11T02:46:50.210Z,97474.50
2018-09-11T02:48:25.381Z,97465.77
2018-09-11T02:50:01.245Z,97470.81
2018-09-11T02:51:36.899Z,97467.91
2018-09-11T02:53:11.965Z,97466.88
2018-09-11T02:54:47.308Z,97458.75
2018-09-11T02:56:23.693Z,97459.95
2018-09-11T02:57:58.992Z,97459.35
2018-09-11T02:59:34.333Z,97464.41
2018-09-11T03:01:10.716Z,97456.02
2018-09-11T03:02:47.586Z,97461.23
2018-09-11T03:04:23.188Z,97456.52
2018-09-11T03:05:58.688Z,97456.88
2018-09-11T03:07:33.928Z,97458.25
2018-09-11T03:09:12.571Z,97459.02
2018-09-11T03:10:48.028Z,97466.63
2018-09-11T03:12:25.994Z,97467.33
2018-09-11T03:14:01.983Z,97470.02
2018-09-11T03:15:37.282Z,97473.20
2018-09-11T03:17:14.072Z,97478.77
2018-09-11T03:18:49.559Z,97478.86
2018-09-11T03:20:25.890Z,97485.39
2018-09-11T03:22:01.494Z,97493.09
2018-09-11T03:23:36.830Z,97497.47
2018-09-11T03:25:13.070Z,97494.37
2018-09-11T03:26:51.570Z,97496.95
2018-09-11T03:28:27.579Z,97498.75
2018-09-11T03:30:05.608Z,97498.27
2018-09-11T03:31:40.908Z,97501.37
2018-09-11T03:33:16.142Z,97501.23
2018-09-11T03:34:51.924Z,97503.55
2018-09-11T03:36:27.905Z,97501.97
2018-09-11T03:38:03.418Z,97498.31
2018-09-11T03:39:39.299Z,97497.03
2018-09-11T03:41:14.493Z,97497.64
2018-09-11T03:42:49.705Z,97495.45
2018-09-11T03:44:25.963Z,97490.58
2018-09-11T03:46:01.666Z,97490.87
2018-09-11T03:47:36.515Z,97494.20
2018-09-11T03:49:12.670Z,97497.98
2018-09-11T03:50:48.478Z,97498.84
2018-09-11T03:52:23.637Z,97493.87
2018-09-11T03:53:58.732Z,97487.55
2018-09-11T03:55:33.620Z,97485.10
2018-09-11T03:57:08.578Z,97486.47
2018-09-11T03:58:43.657Z,97493.44
2018-09-11T04:00:18.733Z,97493.15
2018-09-11T04:01:54.492Z,97491.13
2018-09-11T04:03:29.760Z,97491.30
2018-09-11T04:05:04.717Z,97488.73
2018-09-11T04:06:40.019Z,97496.56
2018-09-11T04:08:14.835Z,97489.12
2018-09-11T04:09:50.275Z,97495.03
2018-09-11T04:11:25.620Z,97497.59
2018-09-11T04:13:00.464Z,97497.72
2018-09-11T04:14:35.257Z,97505.47
2018-09-11T04:16:10.170Z,97503.02
2018-09-11T04:17:45.564Z,97506.45
2018-09-11T04:19:20.371Z,97508.17
2018-09-11T04:20:56.319Z,97511.16
2018-09-11T04:22:31.445Z,97518.44
2018-09-11T04:24:06.258Z,97508.77
2018-09-11T04:25:41.883Z,97503.92
2018-09-11T04:27:17.056Z,97502.00
2018-09-11T04:28:54.115Z,97496.78
2018-09-11T04:30:29.151Z,97495.29
2018-09-11T04:32:04.776Z,97493.91
2018-09-11T04:33:40.366Z,97492.32
2018-09-11T04:35:17.672Z,97492.83
2018-09-11T04:36:53.400Z,97497.66
2018-09-11T04:38:28.478Z,97493.36
2018-09-11T04:40:03.423Z,97488.50
2018-09-11T04:41:40.910Z,97485.80
2018-09-11T04:43:16.387Z,97495.46
2018-09-11T04:44:51.956Z,97489.55
2018-09-11T04:46:27.498Z,97496.50
2018-09-11T04:48:02.913Z,97498.55
2018-09-11T04:49:39.091Z,97499.25
2018-09-11T04:51:14.867Z,97504.12
2018-09-11T04:52:49.920Z,97501.55
2018-09-11T04:54:25.338Z,97499.98
2018-09-11T04:56:02.146Z,97509.45
2018-09-11T04:57:37.757Z,97498.38
2018-09-11T04:59:12.684Z,97505.56
2018-09-11T05:00:48.220Z,97507.00
2018-09-11T05:02:23.054Z,97507.55
2018-09-11T05:03:58.125Z,97509.53
2018-09-11T05:05:33.135Z,97507.72
2018-09-11T05:07:08.281Z,97508.86
2018-09-11T05:08:44.142Z,97508.36
2018-09-11T05:10:19.149Z,97501.06
2018-09-11T05:11:54.808Z,97504.69
2018-09-11T05:13:30.045Z,97503.92
2018-09-11T05:15:07.362Z,97511.25
2018-09-11T05:16:43.960Z,97511.74
2018-09-11T05:18:22.200Z,97500.98
2018-09-11T05:19:59.186Z,97503.89
2018-09-11T05:21:34.192Z,97499.47
2018-09-11T05:23:10.167Z,97496.45
2018-09-11T05:24:45.970Z,97503.38
2018-09-11T05:26:24.376Z,97497.91
2018-09-11T05:28:00.706Z,97496.70
2018-09-11T05:29:43.330Z,97500.70
2018-09-11T05:31:44.904Z,97499.98
2018-09-11T05:35:18.207Z,97499.61
2018-09-11T05:36:53.327Z,97496.42
2018-09-11T05:38:28.501Z,97497.26
2018-09-11T05:40:03.589Z,97496.66
2018-09-11T05:41:42.250Z,97493.02
2018-09-11T05:43:17.241Z,97493.79
2018-09-11T05:44:52.187Z,97496.11
2018-09-11T05:46:28.272Z,97488.19
2018-09-11T05:48:03.152Z,97490.22
2018-09-11T05:49:38.079Z,97489.18
2018-09-11T05:51:13.050Z,97493.02
2018-09-11T05:52:47.916Z,97488.18
2018-09-11T05:54:23.210Z,97491.70
2018-09-11T05:56:02.300Z,97499.17
2018-09-11T05:57:38.295Z,97494.69
2018-09-11T05:59:13.116Z,97494.52
2018-09-11T06:00:48.147Z,97493.64
2018-09-11T06:02:23.431Z,97492.55
2018-09-11T06:03:58.356Z,97491.13
2018-09-11T06:05:33.235Z,97494.68
2018-09-11T06:07:08.259Z,97491.16
2018-09-11T06:08:44.299Z,97488.28
2018-09-11T06:10:19.426Z,97494.69
2018-09-11T06:11:54.628Z,97490.62
2018-09-11T06:13:30.081Z,97489.51
2018-09-11T06:15:07.924Z,97490.02
2018-09-11T06:16:43.791Z,97487.27
2018-09-11T06:18:19.171Z,97492.93
2018-09-11T06:19:54.079Z,97488.35
2018-09-11T06:21:29.316Z,97492.93
2018-09-11T06:23:04.628Z,97498.02
2018-09-11T06:24:40.415Z,97498.49
2018-09-11T06:26:15.739Z,97500.80
2018-09-11T06:27:52.247Z,97493.50
2018-09-11T06:29:27.144Z,97496.98
2018-09-11T06:31:03.736Z,97498.08
2018-09-11T06:32:41.833Z,97504.34
2018-09-11T06:34:16.652Z,97499.63
2018-09-11T06:35:52.693Z,97507.59
2018-09-11T06:37:28.039Z,97502.86
2018-09-11T06:39:03.012Z,97506.83
2018-09-11T06:40:38.186Z,97507.41
2018-09-11T06:42:13.011Z,97511.35
2018-09-11T06:43:48.443Z,97508.81
2018-09-11T06:45:23.300Z,97506.53
2018-09-11T06:46:58.632Z,97505.42
2018-09-11T06:48:33.459Z,97509.11
2018-09-11T06:50:09.278Z,97503.15
2018-09-11T06:51:45.244Z,97509.29
2018-09-11T06:53:22.275Z,97511.72
2018-09-11T06:54:57.955Z,97515.16
2018-09-11T06:56:33.350Z,97512.57
2018-09-11T06:58:10.446Z,97511.52
2018-09-11T06:59:45.575Z,97509.39
2018-09-11T07:01:20.366Z,97510.92
2018-09-11T07:02:55.360Z,97507.25
2018-09-11T07:04:30.247Z,97508.20
2018-09-11T07:06:06.221Z,97509.74
2018-09-11T07:07:41.413Z,97509.28
2018-09-11T07:09:18.193Z,97508.64
2018-09-11T07:10:55.572Z,97509.87
2018-09-11T07:12:32.600Z,97514.97
2018-09-11T07:14:07.488Z,97520.93
2018-09-11T07:15:43.082Z,97523.08
2018-09-11T07:17:18.001Z,97518.33
2018-09-11T07:18:53.747Z,97523.98
2018-09-11T07:20:28.959Z,97526.89
2018-09-11T07:22:05.484Z,97522.92
2018-09-11T07:23:40.340Z,97525.22
2018-09-11T07:25:16.303Z,97526.75
2018-09-11T07:26:51.651Z,97523.37
2018-09-11T07:28:28.013Z,97528.59
2018-09-11T07:30:05.234Z,97522.43
2018-09-11T07:31:40.608Z,97516.61
2018-09-11T07:33:17.520Z,97517.98
2018-09-11T07:34:53.785Z,97525.34
2018-09-11T07:36:34.261Z,97523.66
2018-09-11T07:38:09.766Z,97522.56
2018-09-11T07:39:48.645Z,97526.78
2018-09-11T07:41:24.057Z,97526.16
2018-09-11T07:42:58.869Z,97525.33
2018-09-11T07:44:34.443Z,97523.61
2018-09-11T07:46:09.695Z,97522.21
2018-09-11T07:47:44.614Z,97521.02
2018-09-11T07:49:21.009Z,97523.61
2018-09-11T07:50:59.785Z,97524.77
2018-09-11T07:52:35.036Z,97521.23
2018-09-11T07:54:10.087Z,97519.80
2018-09-11T07:55:45.504Z,97525.30
2018-09-11T07:57:20.272Z,97530.91
2018-09-11T07:58:56.626Z,97528.30
2018-09-11T08:00:34.636Z,97535.14
2018-09-11T08:02:09.466Z,97530.98
2018-09-11T08:03:45.840Z,97538.81
2018-09-11T08:05:22.889Z,97542.75
2018-09-11T08:07:00.329Z,97547.20
2018-09-11T08:08:37.357Z,97546.23
2018-09-11T08:10:17.024Z,97545.88
2018-09-11T08:11:52.224Z,97551.66
2018-09-11T08:13:29.441Z,97543.35
2018-09-11T08:15:09.912Z,97546.58
2018-09-11T08:16:44.724Z,97553.46
2018-09-11T08:18:20.204Z,97549.31
2018-09-11T08:19:58.684Z,97549.75
2018-09-11T08:21:34.129Z,97541.69
2018-09-11T08:23:09.265Z,97543.86
2018-09-11T08:24:46.379Z,97548.80
2018-09-11T08:26:21.606Z,97550.81
2018-09-11T08:27:56.414Z,97544.41
2018-09-11T08:29:35.112Z,97548.52
2018-09-11T08:31:10.189Z,97549.64
2018-09-11T08:32:45.954Z,97550.84
2018-09-11T08:34:20.817Z,97549.00
2018-09-11T08:35:57.323Z,97546.61
2018-09-11T08:37:32.927Z,97554.23
2018-09-11T08:39:12.305Z,97555.27
2018-09-11T08:40:48.999Z,97551.65
2018-09-11T08:42:23.966Z,97547.02
2018-09-11T08:44:00.013Z,97549.24
2018-09-11T08:45:36.759Z,97553.11
2018-09-11T08:47:13.469Z,97546.80
2018-09-11T08:48:49.731Z,97547.19
2018-09-11T08:50:25.331Z,97545.94
2018-09-11T08:52:00.649Z,97542.17
2018-09-11T08:53:36.453Z,97543.41
2018-09-11T08:55:13.977Z,97544.48
2018-09-11T08:56:50.505Z,97542.92
2018-09-11T08:58:25.945Z,97535.08
2018-09-11T09:00:04.963Z,97533.70
2018-09-11T09:01:41.186Z,97531.86
2018-09-11T09:03:16.013Z,97536.70
2018-09-11T09:04:50.925Z,97538.63
2018-09-11T09:06:26.194Z,97537.15
2018-09-11T09:08:02.412Z,97533.79
2018-09-11T09:09:39.105Z,97529.13
2018-09-11T09:11:14.660Z,97529.06
2018-09-11T09:12:49.764Z,97538.91
2018-09-11T09:14:25.065Z,97538.80
2018-09-11T09:16:00.365Z,97525.44
2018-09-11T09:17:35.611Z,97526.29
2018-09-11T09:19:11.511Z,97525.39
2018-09-11T09:20:49.266Z,97531.45
2018-09-11T09:22:24.665Z,97536.33
2018-09-11T09:24:00.135Z,97528.66
2018-09-11T09:25:37.451Z,97531.10
2018-09-11T09:27:13.190Z,97526.66
2018-09-11T09:28:49.274Z,97526.55
2018-09-11T09:30:28.523Z,97527.41
2018-09-11T09:32:05.251Z,97526.80
2018-09-11T09:33:40.829Z,97529.84
2018-09-11T09:35:19.199Z,97523.30
2018-09-11T09:36:54.436Z,97524.50
2018-09-11T09:38:31.160Z,97518.94
2018-09-11T09:40:11.099Z,97517.30
2018-09-11T09:41:46.376Z,97523.80
2018-09-11T09:43:22.593Z,97524.82
2018-09-11T09:44:59.200Z,97523.04
2018-09-11T09:46:35.107Z,97524.14
2018-09-11T09:48:10.860Z,97532.77
2018-09-11T09:49:47.304Z,97532.21
2018-09-11T09:51:24.021Z,97531.94
2018-09-11T09:53:01.366Z,97529.09
2018-09-11T09:54:38.173Z,97534.28
2018-09-11T09:56:15.049Z,97518.44
2018-09-11T09:57:50.308Z,97524.20
2018-09-11T09:59:26.812Z,97525.62
2018-09-11T10:01:10.777Z,97521.97
2018-09-11T10:03:16.776Z,97521.86
2018-09-11T10:04:52.026Z,97520.33
2018-09-11T10:06:28.083Z,97512.34
2018-09-11T10:08:03.404Z,97518.31
2018-09-11T10:09:38.609Z,97516.92
2018-09-11T10:11:14.689Z,97510.45
2018-09-11T10:12:51.741Z,97520.37
2018-09-11T10:14:26.708Z,97522.83
2018-09-11T10:16:03.732Z,97524.98
2018-09-11T10:17:39.555Z,97522.80
2018-09-11T10:19:15.366Z,97530.73
2018-09-11T10:20:52.811Z,97521.72
2018-09-11T10:22:28.174Z,97531.36
2018-09-11T10:24:06.138Z,97527.95
2018-09-11T10:25:41.590Z,97529.16
2018-09-11T10:27:16.584Z,97531.01
2018-09-11T10:28:53.445Z,97535.83
2018-09-11T10:30:31.693Z,97532.84
2018-09-11T10:32:08.052Z,97532.03
2018-09-11T10:33:45.096Z,97530.01
2018-09-11T10:35:23.719Z,97528.62
2018-09-11T10:36:58.600Z,97534.09
2018-09-11T10:38:33.839Z,97535.50
2018-09-11T10:40:08.755Z,97530.55
2018-09-11T10:41:45.222Z,97534.86
2018-09-11T10:43:20.136Z,97530.03
2018-09-11T10:44:55.820Z,97525.98
2018-09-11T10:46:35.914Z,97522.70
2018-09-11T10:48:11.179Z,97520.02
2018-09-11T10:49:47.421Z,97518.61
2018-09-11T10:51:23.510Z,97513.45
2018-09-11T10:53:00.147Z,97502.36
2018-09-11T10:54:34.992Z,97498.65
2018-09-11T10:56:09.915Z,97499.66
2018-09-11T10:57:45.075Z,97499.30
2018-09-11T10:59:19.966Z,97493.01
2018-09-11T11:00:55.416Z,97492.35
2018-09-11T11:02:30.269Z,97498.01
2018-09-11T11:04:05.467Z,97490.92
2018-09-11T11:05:40.270Z,97497.02
2018-09-11T11:07:15.482Z,97499.55
2018-09-11T11:08:50.556Z,97505.61
2018-09-11T11:10:33.078Z,97485.16
2018-09-11T11:12:09.222Z,97487.57
2018-09-11T11:13:44.194Z,97488.96
2018-09-11T11:15:19.344Z,97484.72
2018-09-11T11:16:54.555Z,97490.39
2018-09-11T11:18:29.895Z,97489.14
2018-09-11T11:20:05.269Z,97484.30
2018-09-11T11:21:40.413Z,97475.55
2018-09-11T11:23:16.594Z,97478.41
2018-09-11T11:24:51.810Z,97475.88
2018-09-11T11:26:29.306Z,97465.08
2018-09-11T11:28:05.109Z,97471.03
2018-09-11T11:29:40.613Z,97474.70
2018-09-11T11:31:16.224Z,97463.84
2018-09-11T11:32:52.777Z,97477.47
2018-09-11T11:34:28.528Z,97470.02
2018-09-11T11:36:06.162Z,97469.31
2018-09-11T11:37:45.532Z,97474.23
2018-09-11T11:39:22.185Z,97475.61
2018-09-11T11:40:58.264Z,97469.39
2018-09-11T11:42:36.213Z,97467.92
2018-09-11T11:44:12.584Z,97471.83
2018-09-11T11:45:52.525Z,97466.96
2018-09-11T11:47:32.099Z,97468.31
2018-09-11T11:49:08.371Z,97472.51
2018-09-11T11:50:47.754Z,97467.89
2018-09-11T11:52:23.565Z,97472.89
2018-09-11T11:53:59.452Z,97468.83
2018-09-11T11:55:34.784Z,97473.11
2018-09-11T11:57:10.431Z,97473.27
2018-09-11T11:58:46.928Z,97482.84
2018-09-11T12:00:21.949Z,97474.00
2018-09-11T12:01:57.454Z,97476.45
2018-09-11T12:03:34.337Z,97472.10
2018-09-11T12:05:11.772Z,97466.16
2018-09-11T12:06:47.393Z,97466.70
2018-09-11T12:08:24.613Z,97468.86
2018-09-11T12:10:00.788Z,97472.44
2018-09-11T12:11:36.132Z,97478.37
2018-09-11T12:13:12.036Z,97475.42
2018-09-11T12:14:52.717Z,97475.55
2018-09-11T12:16:29.869Z,97475.77
2018-09-11T12:18:06.845Z,97469.50
2018-09-11T12:19:43.516Z,97483.89
2018-09-11T12:21:18.394Z,97476.73
2018-09-11T12:22:57.901Z,97474.62
2018-09-11T12:24:33.799Z,97466.34
2018-09-11T12:26:09.491Z,97458.41
2018-09-11T12:27:44.707Z,97465.36
2018-09-11T12:29:20.954Z,97468.44
2018-09-11T12:30:57.439Z,97463.31
2018-09-11T12:32:32.570Z,97461.95
2018-09-11T12:34:10.649Z,97460.40
2018-09-11T12:35:46.527Z,97452.16
2018-09-11T12:37:23.250Z,97453.84
2018-09-11T12:38:58.298Z,97448.44
2018-09-11T12:40:34.775Z,97454.63
2018-09-11T12:42:10.340Z,97444.32
2018-09-11T12:43:46.200Z,97445.16
2018-09-11T12:45:23.321Z,97448.05
2018-09-11T12:47:02.880Z,97448.83
2018-09-11T12:48:43.116Z,97443.86
2018-09-11T12:50:19.763Z,97444.48
2018-09-11T12:51:59.728Z,97444.45
2018-09-11T12:53:36.276Z,97440.98
2018-09-11T12:55:13.678Z,97435.92
2018-09-11T12:56:50.220Z,97442.20
2018-09-11T12:58:26.270Z,97436.78
2018-09-11T13:00:04.811Z,97442.09
2018-09-11T13:01:41.282Z,97437.77
2018-09-11T13:03:19.470Z,97432.94
2018-09-11T13:04:55.526Z,97426.88
2018-09-11T13:06:32.448Z,97432.37
2018-09-11T13:08:08.272Z,97426.78
2018-09-11T13:09:47.389Z,97427.47
2018-09-11T13:11:24.083Z,97421.98
2018-09-11T13:13:00.752Z,97423.77
2018-09-11T13:14:40.774Z,97424.72
2018-09-11T13:16:22.052Z,97421.45
2018-09-11T13:18:02.031Z,97428.34
2018-09-11T13:19:39.385Z,97434.34
2018-09-11T13:21:17.444Z,97422.14
2018-09-11T13:22:55.347Z,97422.81
2018-09-11T13:24:40.397Z,97422.52
2018-09-11T13:26:19.297Z,97423.91
2018-09-11T13:27:56.971Z,97420.53
2018-09-11T13:29:35.712Z,97413.07
2018-09-11T13:31:13.362Z,97415.29
2018-09-11T13:32:51.105Z,97419.89
2018-09-11T13:34:32.640Z,97421.70
2018-09-11T13:36:12.385Z,97419.72
2018-09-11T13:37:48.434Z,97416.63
2018-09-11T13:39:25.575Z,97421.03
2018-09-11T13:41:01.018Z,97419.98
2018-09-11T13:42:37.776Z,97419.02
2018-09-11T13:44:14.406Z,97416.86
2018-09-11T13:45:57.034Z,97418.42
2018-09-11T13:47:35.083Z,97409.05
2018-09-11T13:49:11.858Z,97411.84
2018-09-11T13:50:49.803Z,97412.67
2018-09-11T13:52:26.134Z,97413.42
2018-09-11T13:54:01.965Z,97410.18
2018-09-11T13:55:40.657Z,97415.67
2018-09-11T13:57:20.035Z,97406.19
2018-09-11T13:58:56.525Z,97408.52
2018-09-11T14:00:33.884Z,97410.39
2018-09-11T14:02:12.118Z,97404.68
2018-09-11T14:03:50.679Z,97399.78
2018-09-11T14:05:28.623Z,97394.92
2018-09-11T14:07:11.598Z,97392.33
2018-09-11T14:08:49.316Z,97392.31
2018-09-11T14:10:32.112Z,97388.63
2018-09-11T14:12:09.397Z,97387.64
2018-09-11T14:13:46.911Z,97391.92
2018-09-11T14:15:24.291Z,97393.66
2018-09-11T14:17:01.348Z,97398.67
2018-09-11T14:18:37.022Z,97389.17
2018-09-11T14:20:12.767Z,97402.17
2018-09-11T14:21:48.751Z,97390.81
2018-09-11T14:23:25.547Z,97402.66
2018-09-11T14:25:01.080Z,97399.23
2018-09-11T14:26:37.112Z,97398.05
2018-09-11T14:28:15.260Z,97397.67
2018-09-11T14:29:52.756Z,97398.62
2018-09-11T14:31:31.779Z,97400.77
2018-09-11T14:33:10.319Z,97398.25
2018-09-11T14:34:51.071Z,97404.94
2018-09-11T14:36:37.546Z,97401.38
2018-09-11T14:38:15.493Z,97398.17
2018-09-11T14:39:51.777Z,97397.50
2018-09-11T14:41:28.947Z,97407.72
2018-09-11T14:43:05.014Z,97392.06
2018-09-11T14:44:48.964Z,97406.52
2018-09-11T14:46:28.781Z,97402.39
2018-09-11T14:48:14.314Z,97398.33
2018-09-11T14:49:52.523Z,97390.50
2018-09-11T14:51:30.733Z,97397.55
2018-09-11T14:53:07.630Z,97390.16
2018-09-11T14:54:44.562Z,97385.04
2018-09-11T14:56:22.725Z,97386.20
2018-09-11T14:58:01.930Z,97378.55
2018-09-11T14:59:42.276Z,97387.18
2018-09-11T15:01:24.039Z,97383.00
2018-09-11T15:03:00.946Z,97387.31
2018-09-11T15:04:38.333Z,97386.25
2018-09-11T15:06:23.024Z,97388.63
2018-09-11T15:08:03.579Z,97384.30
2018-09-11T15:09:47.629Z,97391.98
2018-09-11T15:11:26.372Z,97388.25
2018-09-11T15:13:04.553Z,97385.56
2018-09-11T15:14:44.318Z,97376.70
2018-09-11T15:16:23.363Z,97377.77
2018-09-11T15:17:58.661Z,97372.84
2018-09-11T15:19:34.845Z,97377.41
2018-09-11T15:21:11.859Z,97376.47
2018-09-11T15:22:50.242Z,97375.00
2018-09-11T15:24:28.848Z,97376.28
2018-09-11T15:26:06.106Z,97375.26
2018-09-11T15:27:42.373Z,97369.87
2018-09-11T15:29:19.256Z,97380.22
2018-09-11T15:30:55.961Z,97378.70
2018-09-11T15:32:35.551Z,97375.14
2018-09-11T15:34:11.421Z,97375.34
2018-09-11T15:35:49.562Z,97370.74
2018-09-11T15:37:25.504Z,97372.34
2018-09-11T15:39:09.575Z,97369.00
2018-09-11T15:40:47.283Z,97361.91
2018-09-11T15:42:23.604Z,97367.46
2018-09-11T15:43:59.225Z,97372.91
2018-09-11T15:45:36.254Z,97373.13
2018-09-11T15:47:13.101Z,97373.38
2018-09-11T15:48:50.853Z,97371.89
2018-09-11T15:50:26.093Z,97374.05
2018-09-11T15:52:01.600Z,97363.67
2018-09-11T15:53:37.847Z,97364.02
2018-09-11T15:55:14.583Z,97360.61
2018-09-11T15:56:52.028Z,97355.08
2018-09-11T15:58:36.556Z,97352.95
2018-09-11T16:00:39.037Z,97354.03
2018-09-11T16:02:43.626Z,97353.70
2018-09-11T16:04:31.867Z,97358.94
2018-09-11T16:06:11.951Z,97368.20
2018-09-11T16:07:52.176Z,97365.46
2018-09-11T16:09:31.356Z,97359.07
2018-09-11T16:11:10.871Z,97360.11
2018-09-11T16:12:48.263Z,97357.95
2018-09-11T16:14:29.711Z,97348.58
2018-09-11T16:16:08.123Z,97357.08
2018-09-11T16:17:51.279Z,97346.75
2018-09-11T16:19:30.957Z,97348.09
2018-09-11T16:21:09.923Z,97346.46
2018-09-11T16:22:48.502Z,97347.98
2018-09-11T16:24:26.903Z,97348.37
2018-09-11T16:26:09.122Z,97341.22
2018-09-11T16:27:44.817Z,97330.44
2018-09-11T16:29:23.588Z,97341.37
2018-09-11T16:31:03.932Z,97332.40
2018-09-11T16:32:43.939Z,97328.73
2018-09-11T16:34:28.042Z,97319.77
2018-09-11T16:36:06.293Z,97328.07
2018-09-11T16:37:45.404Z,97325.70
2018-09-11T16:39:37.343Z,97328.30
2018-09-11T16:41:22.341Z,97325.66
2018-09-11T16:43:07.966Z,97324.31
2018-09-11T16:44:51.304Z,97325.35
2018-09-11T16:46:35.676Z,97327.88
2018-09-11T16:48:13.980Z,97324.35
2018-09-11T16:49:57.365Z,97323.77
2018-09-11T16:51:37.053Z,97321.10
2018-09-11T16:53:13.260Z,97315.91
2018-09-11T16:54:50.453Z,97329.17
2018-09-11T16:56:29.017Z,97324.49
2018-09-11T16:58:11.020Z,97324.38
2018-09-11T16:59:49.069Z,97326.16
2018-09-11T17:01:25.205Z,97321.84
2018-09-11T17:03:09.235Z,97321.66
2018-09-11T17:04:51.584Z,97317.86
2018-09-11T17:06:36.076Z,97318.37
2018-09-11T17:08:15.217Z,97319.38
2018-09-11T17:09:52.658Z,97329.83
2018-09-11T17:11:30.592Z,97326.18
2018-09-11T17:13:10.624Z,97331.05
2018-09-11T17:14:48.220Z,97334.10
2018-09-11T17:16:25.934Z,97331.75
2018-09-11T17:18:05.403Z,97338.09
2018-09-11T17:19:42.263Z,97333.70
2018-09-11T17:21:27.188Z,97327.23
2018-09-11T17:23:03.956Z,97325.13
2018-09-11T17:24:44.220Z,97325.38
2018-09-11T17:26:23.266Z,97327.07
2018-09-11T17:29:48.019Z,97326.86
2018-09-11T17:31:31.283Z,97329.92
2018-09-11T17:33:12.758Z,97335.63
2018-09-11T17:34:52.707Z,97334.38
2018-09-11T17:36:36.758Z,97340.71
2018-09-11T17:38:18.687Z,97340.98
2018-09-11T17:40:05.657Z,97345.41
2018-09-11T17:43:29.136Z,97345.41
2018-09-11T17:45:18.045Z,97348.31
2018-09-11T17:47:01.780Z,97362.33
2018-09-11T17:48:38.398Z,97352.81
2018-09-11T17:50:14.333Z,97355.71
2018-09-11T17:51:54.784Z,97347.08
2018-09-11T17:53:32.669Z,97353.51
2018-09-11T17:55:07.854Z,97357.38
2018-09-11T17:56:48.403Z,97362.64
2018-09-11T17:58:24.929Z,97362.83
2018-09-11T18:00:06.494Z,97363.19
2018-09-11T18:01:47.354Z,97361.74
2018-09-11T18:03:24.790Z,97359.41
2018-09-11T18:05:02.096Z,97361.91
2018-09-11T18:06:38.664Z,97363.07
2018-09-11T18:08:14.950Z,97359.52
2018-09-11T18:09:57.509Z,97372.94
2018-09-11T18:11:35.473Z,97371.41
2018-09-11T18:13:13.092Z,97373.48
2018-09-11T18:14:49.413Z,97369.95
2018-09-11T18:16:26.420Z,97373.54
2018-09-11T18:18:05.404Z,97371.34
2018-09-11T18:19:42.976Z,97370.41
2018-09-11T18:21:19.708Z,97374.38
2018-09-11T18:22:57.777Z,97378.50
2018-09-11T18:24:36.381Z,97383.56
2018-09-11T18:26:12.325Z,97382.39
2018-09-11T18:27:48.274Z,97380.27
2018-09-11T18:29:37.479Z,97388.91
2018-09-11T18:31:19.017Z,97391.26
2018-09-11T18:33:06.746Z,97397.57
2018-09-11T18:34:46.260Z,97391.74
2018-09-11T18:36:25.757Z,97391.34
2018-09-11T18:38:06.045Z,97392.59
2018-09-11T18:39:43.935Z,97394.97
2018-09-11T18:41:22.464Z,97399.27
2018-09-11T18:43:17.408Z,97398.51
2018-09-11T18:45:05.050Z,97405.16
2018-09-11T18:46:49.256Z,97414.15
2018-09-11T18:48:31.256Z,97415.53
2018-09-11T18:54:12.658Z,97411.52
2018-09-11T18:55:57.534Z,97414.06
2018-09-11T18:57:37.431Z,97413.72
2018-09-11T18:59:19.739Z,97419.30
2018-09-11T19:01:01.479Z,97415.96
2018-09-11T19:02:39.584Z,97422.79
2018-09-11T19:04:15.612Z,97418.78
2018-09-11T19:06:06.136Z,97417.09
2018-09-11T19:07:50.170Z,97421.86
2018-09-11T19:09:29.335Z,97431.90
2018-09-11T19:11:05.942Z,97432.52
2018-09-11T19:12:41.820Z,97437.58